Dolphin — WTD6974 — position and weather

sailwx.info

Track history (hours):
 
Tides and Currents Weather Stations Pressure Air Temp Water Temp Dewpoint Dewpoint Depression Visibility Wind Speed Wind Dir Waves Ship Positions

Dolphin

Owner: PENN MARITIME INC, Seattle, WA. More information available from US FCC via Universal Licensing System and Coast Guard Vessel Documentation Center.

Last reported at 2015-Apr-29 06:20 UTC. Time now 2015-May-30 04:31 UTC.
Position N 29°27' W 094°51'.
Warning: this ship's position is 30 days out of date.

Length 41 m; draft 6.9 m.

Type: Towing. MMSI: 366920980.

Date/timePositionNaut miles runAvg speedWind from/ knotsBaromVisibWave heightAir tempDewpointWater temp
2015-Apr-29 06:20N 29°27' W 094°51'6 7.3
2015-Apr-29 05:33N 29°32' W 094°54'6 6.3
2015-Apr-29 04:33N 29°37' W 094°58'3 2.6
2015-Apr-29 03:33N 29°37' W 095°01'0 0.0
2015-Apr-29 02:33N 29°37' W 095°01'0 0.0
2015-Apr-29 01:33N 29°37' W 095°01'0 0.0
2015-Apr-29 00:33N 29°37' W 095°01'0 0.0
2015-Apr-28 23:33N 29°37' W 095°01'0 0.0
2015-Apr-28 22:33N 29°37' W 095°01'0 0.0
2015-Apr-28 21:33N 29°37' W 095°01'0 0.0
2015-Apr-28 20:33N 29°37' W 095°01'0 0.0
2015-Apr-28 19:33N 29°37' W 095°01'0 0.0
2015-Apr-28 18:33N 29°37' W 095°01'0 0.0
2015-Apr-28 17:33N 29°37' W 095°01'0 0.0
2015-Apr-28 16:33N 29°37' W 095°01'0 0.0
2015-Apr-28 15:33N 29°37' W 095°01'0 0.0
2015-Apr-28 14:33N 29°37' W 095°01'0 0.0
2015-Apr-28 13:33N 29°37' W 095°01'0 0.0
2015-Apr-28 12:33N 29°37' W 095°01'0 0.0
2015-Apr-28 11:33N 29°37' W 095°01'0 0.0
2015-Apr-28 10:33N 29°37' W 095°01'0 0.0
2015-Apr-28 09:33N 29°37' W 095°01'0 0.0
2015-Apr-28 08:34N 29°37' W 095°01'0 0.0
2015-Apr-28 07:33N 29°37' W 095°01'0 0.0
2015-Apr-28 06:33N 29°37' W 095°01'0 0.0
2015-Apr-28 05:33N 29°37' W 095°01'0 0.0
2015-Apr-28 04:33N 29°37' W 095°01'0 0.0
2015-Apr-28 03:33N 29°37' W 095°01'0 0.0
2015-Apr-28 02:33N 29°37' W 095°01'0 0.0
2015-Apr-28 01:33N 29°37' W 095°01'0 0.0
2015-Apr-28 00:33N 29°37' W 095°01'0 0.0
2015-Apr-27 23:34N 29°37' W 095°01'0 0.0
2015-Apr-27 22:33N 29°37' W 095°01'0 0.0
2015-Apr-27 21:33N 29°37' W 095°01'0 0.0
2015-Apr-27 20:33N 29°37' W 095°01'0 0.0
2015-Apr-27 19:33N 29°37' W 095°01'0 0.0
2015-Apr-27 18:33N 29°37' W 095°01'0 0.0
2015-Apr-27 17:33N 29°37' W 095°01'0 0.0
2015-Apr-27 16:33N 29°37' W 095°01'0 0.0
2015-Apr-27 15:33N 29°37' W 095°01'0 0.0
2015-Apr-27 14:33N 29°37' W 095°01'0 0.0
2015-Apr-27 13:33N 29°37' W 095°01'0 0.0
2015-Apr-27 12:33N 29°37' W 095°01'0 0.0
2015-Apr-27 11:33N 29°37' W 095°01'0 0.0
2015-Apr-27 10:33N 29°37' W 095°01'0 0.0
2015-Apr-27 09:33N 29°37' W 095°01'0 0.0
2015-Apr-27 08:33N 29°37' W 095°01'0 0.0
2015-Apr-27 07:33N 29°37' W 095°01'0 0.0
2015-Apr-27 06:33N 29°37' W 095°01'0 0.0
2015-Apr-27 05:33N 29°37' W 095°01'0 0.0
2015-Apr-27 04:33N 29°37' W 095°01'0 0.0
2015-Apr-27 03:33N 29°37' W 095°01'0 0.0
2015-Apr-27 02:33N 29°37' W 095°01'4 3.8
2015-Apr-27 01:33N 29°36' W 094°57'7 7.1
2015-Apr-27 00:33N 29°30' W 094°53'7 7.2
2015-Apr-26 23:31N 29°24' W 094°49'5 0.1
2015-Apr-25 09:33N 29°21' W 094°45'0 0.0
2015-Apr-24 06:29N 29°21' W 094°45'2 1.7
2015-Apr-24 05:20N 29°21' W 094°42'12 0.5
2015-Apr-23 05:33N 29°30' W 094°52'7 7.3
2015-Apr-23 04:33N 29°36' W 094°57'7 7.1
2015-Apr-23 03:33N 29°42' W 095°00'6 5.8
2015-Apr-23 02:33N 29°45' W 095°06'2 2.1
2015-Apr-23 01:33N 29°44' W 095°08'0 0.0
2015-Apr-23 00:33N 29°44' W 095°08'0 0.0
2015-Apr-22 23:32N 29°44' W 095°08'0 0.0
2015-Apr-22 22:33N 29°44' W 095°08'0 0.0
2015-Apr-22 21:32N 29°44' W 095°08'0 0.0
2015-Apr-22 20:33N 29°44' W 095°08'0 0.0
2015-Apr-22 19:33N 29°44' W 095°08'0 0.0
2015-Apr-22 18:33N 29°44' W 095°08'0 0.0
2015-Apr-22 17:33N 29°44' W 095°08'0 0.0
2015-Apr-22 16:33N 29°44' W 095°08'0 0.0
2015-Apr-22 15:33N 29°44' W 095°08'0 0.0
2015-Apr-22 14:33N 29°44' W 095°08'0 0.0
2015-Apr-22 13:33N 29°44' W 095°08'0 0.0
2015-Apr-22 12:33N 29°44' W 095°08'0 0.0
2015-Apr-22 11:33N 29°44' W 095°08'0 0.0
2015-Apr-22 10:33N 29°44' W 095°08'0 0.0
2015-Apr-22 09:33N 29°44' W 095°08'0 0.0
2015-Apr-22 08:33N 29°44' W 095°08'0 0.0
2015-Apr-22 07:33N 29°44' W 095°08'0 0.0
2015-Apr-22 06:32N 29°44' W 095°08'0 0.0
2015-Apr-22 05:26N 29°44' W 095°08'0 0.0
2015-Apr-22 03:25N 29°44' W 095°08'0 0.0
2015-Apr-22 02:20N 29°44' W 095°08'0 0.0
2015-Apr-22 01:14N 29°44' W 095°08'0 0.0
2015-Apr-21 22:33N 29°44' W 095°08'3 2.9
2015-Apr-21 21:33N 29°46' W 095°05'7 7.3
2015-Apr-21 20:33N 29°41' W 094°59'8 8.3
2015-Apr-21 19:33N 29°33' W 094°55'  
Track history (hours):
 
Tides and Currents Weather Stations Pressure Air Temp Water Temp Dewpoint Dewpoint Depression Visibility Wind Speed Wind Dir Waves Ship Positions

Dolphin

Owner: PENN MARITIME INC, Seattle, WA. More information available from US FCC via Universal Licensing System and Coast Guard Vessel Documentation Center.

Last reported at 2015-Apr-29 06:20 UTC. Time now 2015-May-30 04:31 UTC.
Position N 29°27' W 094°51'.
Warning: this ship's position is 30 days out of date.

Length 41 m; draft 6.9 m.

Type: Towing. MMSI: 366920980.

Date/timePositionNaut miles runAvg speedWind from/ knotsBaromVisibWave heightAir tempDewpointWater temp
2015-Apr-29 06:20N 29°27' W 094°51'6 7.3
2015-Apr-29 05:33N 29°32' W 094°54'6 6.3
2015-Apr-29 04:33N 29°37' W 094°58'3 2.6
2015-Apr-29 03:33N 29°37' W 095°01'0 0.0
2015-Apr-29 02:33N 29°37' W 095°01'0 0.0
2015-Apr-29 01:33N 29°37' W 095°01'0 0.0
2015-Apr-29 00:33N 29°37' W 095°01'0 0.0
2015-Apr-28 23:33N 29°37' W 095°01'0 0.0
2015-Apr-28 22:33N 29°37' W 095°01'0 0.0
2015-Apr-28 21:33N 29°37' W 095°01'0 0.0
2015-Apr-28 20:33N 29°37' W 095°01'0 0.0
2015-Apr-28 19:33N 29°37' W 095°01'0 0.0
2015-Apr-28 18:33N 29°37' W 095°01'0 0.0
2015-Apr-28 17:33N 29°37' W 095°01'0 0.0
2015-Apr-28 16:33N 29°37' W 095°01'0 0.0
2015-Apr-28 15:33N 29°37' W 095°01'0 0.0
2015-Apr-28 14:33N 29°37' W 095°01'0 0.0
2015-Apr-28 13:33N 29°37' W 095°01'0 0.0
2015-Apr-28 12:33N 29°37' W 095°01'0 0.0
2015-Apr-28 11:33N 29°37' W 095°01'0 0.0
2015-Apr-28 10:33N 29°37' W 095°01'0 0.0
2015-Apr-28 09:33N 29°37' W 095°01'0 0.0
2015-Apr-28 08:34N 29°37' W 095°01'0 0.0
2015-Apr-28 07:33N 29°37' W 095°01'0 0.0
2015-Apr-28 06:33N 29°37' W 095°01'0 0.0
2015-Apr-28 05:33N 29°37' W 095°01'0 0.0
2015-Apr-28 04:33N 29°37' W 095°01'0 0.0
2015-Apr-28 03:33N 29°37' W 095°01'0 0.0
2015-Apr-28 02:33N 29°37' W 095°01'0 0.0
2015-Apr-28 01:33N 29°37' W 095°01'0 0.0
2015-Apr-28 00:33N 29°37' W 095°01'0 0.0
2015-Apr-27 23:34N 29°37' W 095°01'0 0.0
2015-Apr-27 22:33N 29°37' W 095°01'0 0.0
2015-Apr-27 21:33N 29°37' W 095°01'0 0.0
2015-Apr-27 20:33N 29°37' W 095°01'0 0.0
2015-Apr-27 19:33N 29°37' W 095°01'0 0.0
2015-Apr-27 18:33N 29°37' W 095°01'0 0.0
2015-Apr-27 17:33N 29°37' W 095°01'0 0.0
2015-Apr-27 16:33N 29°37' W 095°01'0 0.0
2015-Apr-27 15:33N 29°37' W 095°01'0 0.0
2015-Apr-27 14:33N 29°37' W 095°01'0 0.0
2015-Apr-27 13:33N 29°37' W 095°01'0 0.0
2015-Apr-27 12:33N 29°37' W 095°01'0 0.0
2015-Apr-27 11:33N 29°37' W 095°01'0 0.0
2015-Apr-27 10:33N 29°37' W 095°01'0 0.0
2015-Apr-27 09:33N 29°37' W 095°01'0 0.0
2015-Apr-27 08:33N 29°37' W 095°01'0 0.0
2015-Apr-27 07:33N 29°37' W 095°01'0 0.0
2015-Apr-27 06:33N 29°37' W 095°01'0 0.0
2015-Apr-27 05:33N 29°37' W 095°01'0 0.0
2015-Apr-27 04:33N 29°37' W 095°01'0 0.0
2015-Apr-27 03:33N 29°37' W 095°01'0 0.0
2015-Apr-27 02:33N 29°37' W 095°01'4 3.8
2015-Apr-27 01:33N 29°36' W 094°57'7 7.1
2015-Apr-27 00:33N 29°30' W 094°53'7 7.2
2015-Apr-26 23:31N 29°24' W 094°49'5 0.1
2015-Apr-25 09:33N 29°21' W 094°45'0 0.0
2015-Apr-24 06:29N 29°21' W 094°45'2 1.7
2015-Apr-24 05:20N 29°21' W 094°42'12 0.5
2015-Apr-23 05:33N 29°30' W 094°52'7 7.3
2015-Apr-23 04:33N 29°36' W 094°57'7 7.1
2015-Apr-23 03:33N 29°42' W 095°00'6 5.8
2015-Apr-23 02:33N 29°45' W 095°06'2 2.1
2015-Apr-23 01:33N 29°44' W 095°08'0 0.0
2015-Apr-23 00:33N 29°44' W 095°08'0 0.0
2015-Apr-22 23:32N 29°44' W 095°08'0 0.0
2015-Apr-22 22:33N 29°44' W 095°08'0 0.0
2015-Apr-22 21:32N 29°44' W 095°08'0 0.0
2015-Apr-22 20:33N 29°44' W 095°08'0 0.0
2015-Apr-22 19:33N 29°44' W 095°08'0 0.0
2015-Apr-22 18:33N 29°44' W 095°08'0 0.0
2015-Apr-22 17:33N 29°44' W 095°08'0 0.0
2015-Apr-22 16:33N 29°44' W 095°08'0 0.0
2015-Apr-22 15:33N 29°44' W 095°08'0 0.0
2015-Apr-22 14:33N 29°44' W 095°08'0 0.0
2015-Apr-22 13:33N 29°44' W 095°08'0 0.0
2015-Apr-22 12:33N 29°44' W 095°08'0 0.0
2015-Apr-22 11:33N 29°44' W 095°08'0 0.0
2015-Apr-22 10:33N 29°44' W 095°08'0 0.0
2015-Apr-22 09:33N 29°44' W 095°08'0 0.0
2015-Apr-22 08:33N 29°44' W 095°08'0 0.0
2015-Apr-22 07:33N 29°44' W 095°08'0 0.0
2015-Apr-22 06:32N 29°44' W 095°08'0 0.0
2015-Apr-22 05:26N 29°44' W 095°08'0 0.0
2015-Apr-22 03:25N 29°44' W 095°08'0 0.0
2015-Apr-22 02:20N 29°44' W 095°08'0 0.0
2015-Apr-22 01:14N 29°44' W 095°08'0 0.0
2015-Apr-21 22:33N 29°44' W 095°08'3 2.9
2015-Apr-21 21:33N 29°46' W 095°05'7 7.3
2015-Apr-21 20:33N 29°41' W 094°59'8 8.3
2015-Apr-21 19:33N 29°33' W 094°55'  

Dump ship's entire track history